BVX05NB YMML-NZCH
Flight info
| Callsign | BVX05NB |
|---|---|
| Flight time | 3h 0m |
| Altitude | 37000 |
| Route | CORRS Y260 ECKHO L508 MOLGI |
| Aircraft | A320/M-SDE3FGHIRWY/LB1 |
Departure
| Time | 2026-05-06 11:49 |
|---|---|
| Airport | Melbourne Airport (YMML) |
Arrival
| Time | 2026-05-06 14:50 |
|---|---|
| Airport | Christchurch International Airport (NZCH) |
| Time | Latitude | Longitude | Altitude | Speed | Heading |
|---|---|---|---|---|---|
| 2026-05-06 11:24 | -37.66718 | 144.84891 | 340 ft | 0 kts | 81° |
| 2026-05-06 11:40 | -37.66718 | 144.84897 | 340 ft | 0 kts | 81° |
| 2026-05-06 11:40 | -37.66719 | 144.84883 | 336 ft | 2 kts | 81° |
| 2026-05-06 11:41 | -37.66721 | 144.84862 | 336 ft | 2 kts | 62° |
| 2026-05-06 11:41 | -37.66733 | 144.84848 | 338 ft | 2 kts | 353° |
| 2026-05-06 11:41 | -37.66735 | 144.84848 | 337 ft | 0 kts | 351° |
| 2026-05-06 11:46 | -37.66734 | 144.84848 | 337 ft | 1 kts | 351° |
| 2026-05-06 11:46 | -37.66673 | 144.84820 | 337 ft | 19 kts | 343° |
| 2026-05-06 11:46 | -37.66529 | 144.84794 | 331 ft | 23 kts | 351° |
| 2026-05-06 11:46 | -37.66373 | 144.84779 | 329 ft | 20 kts | 2° |
| 2026-05-06 11:47 | -37.66347 | 144.84780 | 328 ft | 0 kts | 2° |
| 2026-05-06 11:48 | -37.66340 | 144.84780 | 327 ft | 6 kts | 2° |
| 2026-05-06 11:48 | -37.66231 | 144.84780 | 332 ft | 17 kts | 348° |
| 2026-05-06 11:48 | -37.66222 | 144.84730 | 332 ft | 2 kts | 271° |
| 2026-05-06 11:49 | -37.66207 | 144.84473 | 350 ft | 66 kts | 274° |
| 2026-05-06 11:49 | -37.66157 | 144.83623 | 398 ft | 126 kts | 274° |
| 2026-05-06 11:49 | -37.66073 | 144.82307 | 523 ft | 167 kts | 274° |
| 2026-05-06 11:49 | -37.65983 | 144.80854 | 1267 ft | 167 kts | 274° |
| 2026-05-06 11:50 | -37.65899 | 144.79399 | 2121 ft | 165 kts | 275° |
| 2026-05-06 11:50 | -37.65813 | 144.77901 | 2718 ft | 181 kts | 275° |
| 2026-05-06 11:50 | -37.65715 | 144.76225 | 3162 ft | 203 kts | 275° |
| 2026-05-06 11:50 | -37.65608 | 144.74390 | 3673 ft | 222 kts | 274° |
| 2026-05-06 11:51 | -37.65619 | 144.72362 | 4252 ft | 243 kts | 261° |
| 2026-05-06 11:51 | -37.66125 | 144.70282 | 5065 ft | 253 kts | 243° |
| 2026-05-06 11:51 | -37.67176 | 144.68484 | 5946 ft | 260 kts | 221° |
| 2026-05-06 11:51 | -37.68788 | 144.67390 | 6814 ft | 271 kts | 196° |
| 2026-05-06 11:52 | -37.70699 | 144.67387 | 7601 ft | 284 kts | 167° |
| 2026-05-06 11:52 | -37.72437 | 144.68641 | 8376 ft | 297 kts | 135° |
| 2026-05-06 11:52 | -37.73479 | 144.70901 | 9139 ft | 305 kts | 107° |
| 2026-05-06 11:52 | -37.74063 | 144.73495 | 9889 ft | 309 kts | 104° |
| 2026-05-06 11:53 | -37.74624 | 144.76162 | 10390 ft | 323 kts | 104° |
| 2026-05-06 11:53 | -37.75210 | 144.78997 | 10665 ft | 342 kts | 104° |
| 2026-05-06 11:53 | -37.75820 | 144.81941 | 11260 ft | 349 kts | 104° |
| 2026-05-06 11:53 | -37.76445 | 144.84928 | 11926 ft | 354 kts | 104° |
| 2026-05-06 11:54 | -37.77086 | 144.87948 | 12616 ft | 358 kts | 103° |
| 2026-05-06 11:54 | -37.77740 | 144.91001 | 13293 ft | 362 kts | 103° |
| 2026-05-06 11:54 | -37.78402 | 144.94085 | 13960 ft | 366 kts | 103° |
| 2026-05-06 11:54 | -37.79071 | 144.97203 | 14553 ft | 369 kts | 103° |
| 2026-05-06 11:55 | -37.79743 | 145.00347 | 15148 ft | 372 kts | 103° |
| 2026-05-06 11:55 | -37.80417 | 145.03515 | 15758 ft | 373 kts | 102° |
| 2026-05-06 11:55 | -37.81093 | 145.06699 | 16390 ft | 375 kts | 102° |
| 2026-05-06 11:55 | -37.81771 | 145.09891 | 16987 ft | 378 kts | 102° |
| 2026-05-06 11:56 | -37.82451 | 145.13109 | 17586 ft | 380 kts | 102° |
| 2026-05-06 11:56 | -37.83136 | 145.16357 | 18152 ft | 383 kts | 102° |
| 2026-05-06 11:56 | -37.83826 | 145.19630 | 18694 ft | 386 kts | 102° |
| 2026-05-06 11:56 | -37.84522 | 145.22924 | 19187 ft | 389 kts | 102° |
| 2026-05-06 11:57 | -37.85224 | 145.26248 | 19681 ft | 392 kts | 102° |
| 2026-05-06 11:57 | -37.85920 | 145.29556 | 20163 ft | 395 kts | 102° |
| 2026-05-06 11:57 | -37.86628 | 145.32926 | 20653 ft | 398 kts | 102° |
| 2026-05-06 11:57 | -37.87341 | 145.36327 | 21133 ft | 401 kts | 102° |
| 2026-05-06 11:58 | -37.88029 | 145.39609 | 21579 ft | 404 kts | 102° |
| 2026-05-06 11:58 | -37.88748 | 145.43045 | 22051 ft | 406 kts | 102° |
| 2026-05-06 11:58 | -37.89475 | 145.46526 | 22505 ft | 409 kts | 101° |
| 2026-05-06 11:58 | -37.90203 | 145.50025 | 22947 ft | 412 kts | 101° |
| 2026-05-06 11:59 | -37.90933 | 145.53548 | 23369 ft | 415 kts | 101° |
| 2026-05-06 11:59 | -37.91667 | 145.57095 | 23807 ft | 418 kts | 101° |
| 2026-05-06 11:59 | -37.92447 | 145.60661 | 24178 ft | 422 kts | 106° |
| 2026-05-06 11:59 | -37.93593 | 145.64108 | 24521 ft | 428 kts | 114° |
| 2026-05-06 12:00 | -37.94892 | 145.67475 | 24883 ft | 430 kts | 114° |
| 2026-05-06 12:00 | -37.96213 | 145.70916 | 25245 ft | 432 kts | 114° |
| 2026-05-06 12:00 | -37.97526 | 145.74351 | 25599 ft | 434 kts | 114° |
| 2026-05-06 12:00 | -37.98846 | 145.77812 | 25955 ft | 437 kts | 114° |
| 2026-05-06 12:01 | -38.00171 | 145.81296 | 26307 ft | 439 kts | 114° |
| 2026-05-06 12:01 | -38.01499 | 145.84789 | 26650 ft | 441 kts | 114° |
| 2026-05-06 12:01 | -38.02816 | 145.88258 | 26983 ft | 443 kts | 114° |
| 2026-05-06 12:01 | -38.04153 | 145.91788 | 27307 ft | 445 kts | 114° |
| 2026-05-06 12:02 | -38.05500 | 145.95343 | 27640 ft | 448 kts | 114° |
| 2026-05-06 12:02 | -38.06853 | 145.98909 | 27968 ft | 450 kts | 114° |
| 2026-05-06 12:02 | -38.08211 | 146.02497 | 28286 ft | 452 kts | 114° |
| 2026-05-06 12:02 | -38.09572 | 146.06102 | 28601 ft | 454 kts | 114° |
| 2026-05-06 12:03 | -38.10939 | 146.09739 | 28931 ft | 456 kts | 114° |
| 2026-05-06 12:03 | -38.12309 | 146.13382 | 29236 ft | 458 kts | 114° |
| 2026-05-06 12:03 | -38.13686 | 146.17046 | 29546 ft | 460 kts | 114° |
| 2026-05-06 12:03 | -38.15067 | 146.20724 | 29839 ft | 462 kts | 114° |
| 2026-05-06 12:04 | -38.16453 | 146.24417 | 30142 ft | 464 kts | 114° |
| 2026-05-06 12:04 | -38.17849 | 146.28134 | 30413 ft | 467 kts | 114° |
| 2026-05-06 12:04 | -38.19253 | 146.31867 | 30656 ft | 469 kts | 114° |
| 2026-05-06 12:04 | -38.20659 | 146.35617 | 30902 ft | 470 kts | 114° |
| 2026-05-06 12:05 | -38.22063 | 146.39372 | 31151 ft | 472 kts | 114° |
| 2026-05-06 12:05 | -38.23461 | 146.43124 | 31365 ft | 474 kts | 114° |
| 2026-05-06 12:05 | -38.24875 | 146.46927 | 31590 ft | 476 kts | 114° |
| 2026-05-06 12:05 | -38.26293 | 146.50745 | 31810 ft | 478 kts | 114° |
| 2026-05-06 12:06 | -38.27715 | 146.54572 | 32090 ft | 478 kts | 114° |
| 2026-05-06 12:06 | -38.29134 | 146.58399 | 32400 ft | 478 kts | 114° |
| 2026-05-06 12:06 | -38.30555 | 146.62222 | 32692 ft | 478 kts | 114° |
| 2026-05-06 12:06 | -38.31978 | 146.66052 | 32977 ft | 478 kts | 114° |
| 2026-05-06 12:07 | -38.33401 | 146.69884 | 33270 ft | 478 kts | 114° |
| 2026-05-06 12:07 | -38.34819 | 146.73710 | 33560 ft | 478 kts | 115° |
| 2026-05-06 12:07 | -38.36232 | 146.77534 | 33842 ft | 478 kts | 115° |
| 2026-05-06 12:07 | -38.37648 | 146.81381 | 34125 ft | 479 kts | 114° |
| 2026-05-06 12:08 | -38.39012 | 146.85094 | 34369 ft | 478 kts | 114° |
| 2026-05-06 12:08 | -38.40213 | 146.88367 | 34613 ft | 477 kts | 114° |
| 2026-05-06 12:08 | -38.41618 | 146.92194 | 34863 ft | 476 kts | 114° |
| 2026-05-06 12:08 | -38.43020 | 146.96018 | 35086 ft | 476 kts | 114° |
| 2026-05-06 12:09 | -38.44420 | 146.99848 | 35300 ft | 476 kts | 114° |
| 2026-05-06 12:09 | -38.45822 | 147.03681 | 35502 ft | 476 kts | 114° |
| 2026-05-06 12:09 | -38.47222 | 147.07506 | 35727 ft | 476 kts | 114° |
| 2026-05-06 12:09 | -38.48623 | 147.11339 | 35904 ft | 476 kts | 114° |
| 2026-05-06 12:10 | -38.50019 | 147.15168 | 36120 ft | 476 kts | 114° |
| 2026-05-06 12:10 | -38.51414 | 147.18993 | 36307 ft | 475 kts | 114° |
| 2026-05-06 12:10 | -38.52803 | 147.22818 | 36514 ft | 475 kts | 114° |
| 2026-05-06 12:10 | -38.54192 | 147.26650 | 36680 ft | 475 kts | 114° |
| 2026-05-06 12:11 | -38.55563 | 147.30434 | 36842 ft | 475 kts | 114° |
| 2026-05-06 12:11 | -38.56946 | 147.34256 | 37007 ft | 475 kts | 114° |
| 2026-05-06 12:11 | -38.58338 | 147.38104 | 37158 ft | 475 kts | 114° |
| 2026-05-06 12:11 | -38.59715 | 147.41915 | 37180 ft | 471 kts | 114° |
| 2026-05-06 12:12 | -38.62438 | 147.49489 | 37172 ft | 468 kts | 114° |
| 2026-05-06 12:12 | -38.65114 | 147.56951 | 37173 ft | 468 kts | 114° |
| 2026-05-06 12:13 | -38.67838 | 147.64512 | 37174 ft | 468 kts | 114° |
| 2026-05-06 12:13 | -38.70467 | 147.71862 | 37173 ft | 467 kts | 114° |
| 2026-05-06 12:14 | -38.73129 | 147.79333 | 37177 ft | 468 kts | 114° |
| 2026-05-06 12:14 | -38.75823 | 147.86914 | 37182 ft | 468 kts | 114° |
| 2026-05-06 12:15 | -38.78520 | 147.94501 | 37182 ft | 468 kts | 114° |
| 2026-05-06 12:15 | -38.81205 | 148.02093 | 37187 ft | 468 kts | 114° |
| 2026-05-06 12:16 | -38.83885 | 148.09691 | 37185 ft | 468 kts | 114° |
| 2026-05-06 12:16 | -38.86490 | 148.17077 | 37182 ft | 468 kts | 114° |
| 2026-05-06 12:17 | -38.89145 | 148.24634 | 37182 ft | 467 kts | 114° |
| 2026-05-06 12:17 | -38.91833 | 148.32291 | 37185 ft | 467 kts | 114° |
| 2026-05-06 12:18 | -38.94474 | 148.39847 | 37184 ft | 467 kts | 114° |
| 2026-05-06 12:18 | -38.97127 | 148.47468 | 37187 ft | 467 kts | 113° |
| 2026-05-06 12:19 | -38.99774 | 148.55083 | 37185 ft | 467 kts | 114° |
| 2026-05-06 12:19 | -39.02420 | 148.62702 | 37186 ft | 466 kts | 113° |
| 2026-05-06 12:20 | -39.05057 | 148.70326 | 37179 ft | 466 kts | 113° |
| 2026-05-06 12:20 | -39.07689 | 148.77950 | 37176 ft | 466 kts | 113° |
| 2026-05-06 12:21 | -39.10311 | 148.85579 | 37175 ft | 466 kts | 113° |
| 2026-05-06 12:21 | -39.12935 | 148.93200 | 37173 ft | 466 kts | 113° |
| 2026-05-06 12:22 | -39.15527 | 149.00785 | 37173 ft | 465 kts | 113° |
| 2026-05-06 12:22 | -39.18125 | 149.08430 | 37174 ft | 465 kts | 113° |
| 2026-05-06 12:23 | -39.20727 | 149.16072 | 37172 ft | 465 kts | 113° |
| 2026-05-06 12:23 | -39.23326 | 149.23712 | 37173 ft | 465 kts | 113° |
| 2026-05-06 12:24 | -39.25915 | 149.31355 | 37173 ft | 465 kts | 113° |
| 2026-05-06 12:24 | -39.28501 | 149.39005 | 37169 ft | 465 kts | 113° |
| 2026-05-06 12:25 | -39.31077 | 149.46659 | 37168 ft | 465 kts | 113° |
| 2026-05-06 12:25 | -39.33217 | 149.53021 | 37168 ft | 465 kts | 112° |
| 2026-05-06 12:26 | -39.36224 | 149.61979 | 37162 ft | 465 kts | 112° |
| 2026-05-06 12:26 | -39.38771 | 149.69595 | 37163 ft | 464 kts | 112° |
| 2026-05-06 12:27 | -39.41321 | 149.77264 | 37163 ft | 464 kts | 112° |
| 2026-05-06 12:27 | -39.43435 | 149.83648 | 37163 ft | 464 kts | 112° |
| 2026-05-06 12:28 | -39.45981 | 149.91319 | 37158 ft | 464 kts | 112° |
| 2026-05-06 12:28 | -39.48521 | 149.98990 | 37162 ft | 463 kts | 112° |
| 2026-05-06 12:29 | -39.51054 | 150.06669 | 37161 ft | 463 kts | 112° |
| 2026-05-06 12:29 | -39.53580 | 150.14343 | 37160 ft | 463 kts | 112° |
| 2026-05-06 12:30 | -39.56105 | 150.22025 | 37159 ft | 463 kts | 112° |
| 2026-05-06 12:30 | -39.58612 | 150.29710 | 37158 ft | 463 kts | 112° |
| 2026-05-06 12:31 | -39.61114 | 150.37397 | 37156 ft | 462 kts | 112° |
| 2026-05-06 12:31 | -39.63623 | 150.45083 | 37147 ft | 462 kts | 112° |
| 2026-05-06 12:32 | -39.66081 | 150.52729 | 37149 ft | 462 kts | 111° |
| 2026-05-06 12:32 | -39.68377 | 150.60518 | 37148 ft | 462 kts | 109° |
| 2026-05-06 12:33 | -39.70550 | 150.68363 | 37146 ft | 462 kts | 109° |
| 2026-05-06 12:33 | -39.72731 | 150.76206 | 37138 ft | 462 kts | 109° |
| 2026-05-06 12:34 | -39.74944 | 150.84037 | 37139 ft | 461 kts | 109° |
| 2026-05-06 12:34 | -39.77158 | 150.91865 | 37142 ft | 461 kts | 109° |
| 2026-05-06 12:35 | -39.79362 | 150.99698 | 37142 ft | 461 kts | 109° |
| 2026-05-06 12:35 | -39.81557 | 151.07531 | 37137 ft | 461 kts | 109° |
| 2026-05-06 12:36 | -39.83731 | 151.15307 | 37139 ft | 461 kts | 109° |
| 2026-05-06 12:36 | -39.85911 | 151.23146 | 37138 ft | 460 kts | 109° |
| 2026-05-06 12:37 | -39.88092 | 151.30983 | 37137 ft | 460 kts | 109° |
| 2026-05-06 12:37 | -39.90270 | 151.38826 | 37134 ft | 460 kts | 109° |
| 2026-05-06 12:38 | -39.92431 | 151.46675 | 37133 ft | 460 kts | 108° |
| 2026-05-06 12:38 | -39.94584 | 151.54525 | 37135 ft | 460 kts | 108° |
| 2026-05-06 12:39 | -39.96739 | 151.62370 | 37131 ft | 460 kts | 108° |
| 2026-05-06 12:39 | -39.98876 | 151.70183 | 37125 ft | 460 kts | 108° |
| 2026-05-06 12:40 | -40.01031 | 151.78084 | 37126 ft | 459 kts | 108° |
| 2026-05-06 12:40 | -40.03100 | 151.85702 | 37125 ft | 459 kts | 108° |
| 2026-05-06 12:41 | -40.05226 | 151.93566 | 37123 ft | 459 kts | 108° |
| 2026-05-06 12:41 | -40.07345 | 152.01431 | 37123 ft | 459 kts | 108° |
| 2026-05-06 12:42 | -40.09460 | 152.09291 | 37125 ft | 459 kts | 108° |
| 2026-05-06 12:42 | -40.11580 | 152.17146 | 37122 ft | 458 kts | 108° |
| 2026-05-06 12:43 | -40.13690 | 152.25016 | 37123 ft | 458 kts | 108° |
| 2026-05-06 12:43 | -40.15783 | 152.32888 | 37117 ft | 458 kts | 108° |
| 2026-05-06 12:44 | -40.17878 | 152.40759 | 37116 ft | 458 kts | 108° |
| 2026-05-06 12:44 | -40.19962 | 152.48629 | 37114 ft | 458 kts | 108° |
| 2026-05-06 12:45 | -40.22045 | 152.56507 | 37117 ft | 458 kts | 108° |
| 2026-05-06 12:46 | -40.25133 | 152.68273 | 37118 ft | 458 kts | 108° |
| 2026-05-06 12:46 | -40.27197 | 152.76155 | 37115 ft | 458 kts | 107° |
| 2026-05-06 12:47 | -40.29260 | 152.84038 | 37107 ft | 457 kts | 107° |
| 2026-05-06 12:47 | -40.31322 | 152.91924 | 37111 ft | 457 kts | 107° |
| 2026-05-06 12:48 | -40.33372 | 152.99814 | 37112 ft | 457 kts | 107° |
| 2026-05-06 12:48 | -40.35410 | 153.07706 | 37111 ft | 457 kts | 107° |
| 2026-05-06 12:49 | -40.37447 | 153.15604 | 37111 ft | 457 kts | 107° |
| 2026-05-06 12:49 | -40.39477 | 153.23503 | 37112 ft | 457 kts | 107° |
| 2026-05-06 12:50 | -40.41501 | 153.31410 | 37112 ft | 457 kts | 107° |
| 2026-05-06 12:50 | -40.43518 | 153.39322 | 37109 ft | 457 kts | 107° |
| 2026-05-06 12:51 | -40.45518 | 153.47190 | 37106 ft | 457 kts | 107° |
| 2026-05-06 12:51 | -40.47534 | 153.55111 | 37109 ft | 457 kts | 107° |
| 2026-05-06 12:52 | -40.49540 | 153.63033 | 37110 ft | 457 kts | 107° |
| 2026-05-06 12:52 | -40.51530 | 153.70962 | 37113 ft | 457 kts | 107° |
| 2026-05-06 12:53 | -40.53526 | 153.78897 | 37108 ft | 457 kts | 107° |
| 2026-05-06 12:53 | -40.55515 | 153.86825 | 37110 ft | 457 kts | 107° |
| 2026-05-06 12:54 | -40.57499 | 153.94770 | 37111 ft | 457 kts | 107° |
| 2026-05-06 12:54 | -40.59476 | 154.02725 | 37109 ft | 457 kts | 107° |
| 2026-05-06 12:55 | -40.61437 | 154.10621 | 37112 ft | 457 kts | 107° |
| 2026-05-06 12:55 | -40.63407 | 154.18577 | 37110 ft | 457 kts | 106° |
| 2026-05-06 12:56 | -40.65362 | 154.26533 | 37110 ft | 457 kts | 106° |
| 2026-05-06 12:56 | -40.67313 | 154.34513 | 37112 ft | 457 kts | 106° |
| 2026-05-06 12:57 | -40.69269 | 154.42480 | 37108 ft | 457 kts | 106° |
| 2026-05-06 12:57 | -40.71212 | 154.50456 | 37128 ft | 457 kts | 106° |
| 2026-05-06 12:58 | -40.73134 | 154.58379 | 37123 ft | 457 kts | 106° |
| 2026-05-06 12:58 | -40.75066 | 154.66367 | 37116 ft | 457 kts | 106° |
| 2026-05-06 12:59 | -40.76993 | 154.74356 | 37110 ft | 457 kts | 106° |
| 2026-05-06 12:59 | -40.78913 | 154.82357 | 37113 ft | 457 kts | 106° |
| 2026-05-06 13:00 | -40.80835 | 154.90349 | 37116 ft | 457 kts | 106° |
| 2026-05-06 13:00 | -40.82740 | 154.98309 | 37121 ft | 457 kts | 106° |
| 2026-05-06 13:01 | -40.84643 | 155.06313 | 37121 ft | 457 kts | 105° |
| 2026-05-06 13:01 | -40.86542 | 155.14328 | 37117 ft | 457 kts | 105° |
| 2026-05-06 13:02 | -40.88440 | 155.22344 | 37116 ft | 457 kts | 105° |
| 2026-05-06 13:02 | -40.90324 | 155.30357 | 37116 ft | 457 kts | 105° |
| 2026-05-06 13:03 | -40.92202 | 155.38384 | 37115 ft | 457 kts | 105° |
| 2026-05-06 13:03 | -40.94078 | 155.46412 | 37113 ft | 457 kts | 105° |
| 2026-05-06 13:04 | -40.95946 | 155.54446 | 37115 ft | 457 kts | 105° |
| 2026-05-06 13:04 | -40.97817 | 155.62488 | 37114 ft | 457 kts | 105° |
| 2026-05-06 13:05 | -40.99676 | 155.70532 | 37116 ft | 457 kts | 105° |
| 2026-05-06 13:05 | -41.01518 | 155.78533 | 37116 ft | 457 kts | 105° |
| 2026-05-06 13:06 | -41.03368 | 155.86589 | 37116 ft | 457 kts | 105° |
| 2026-05-06 13:06 | -41.05215 | 155.94650 | 37108 ft | 457 kts | 105° |
| 2026-05-06 13:07 | -41.07053 | 156.02706 | 37110 ft | 456 kts | 105° |
| 2026-05-06 13:07 | -41.08883 | 156.10761 | 37109 ft | 456 kts | 105° |
| 2026-05-06 13:08 | -41.10706 | 156.18816 | 37109 ft | 456 kts | 105° |
| 2026-05-06 13:08 | -41.12517 | 156.26829 | 37109 ft | 456 kts | 105° |
| 2026-05-06 13:09 | -41.14334 | 156.34894 | 37108 ft | 456 kts | 105° |
| 2026-05-06 13:09 | -41.16139 | 156.42959 | 37111 ft | 456 kts | 105° |
| 2026-05-06 13:10 | -41.17935 | 156.51026 | 37108 ft | 456 kts | 104° |
| 2026-05-06 13:10 | -41.19732 | 156.59099 | 37099 ft | 456 kts | 104° |
| 2026-05-06 13:11 | -41.21521 | 156.67172 | 37100 ft | 456 kts | 104° |
| 2026-05-06 13:11 | -41.23301 | 156.75247 | 37101 ft | 456 kts | 104° |
| 2026-05-06 13:12 | -41.25076 | 156.83333 | 37101 ft | 456 kts | 104° |
| 2026-05-06 13:12 | -41.26848 | 156.91434 | 37096 ft | 456 kts | 104° |
| 2026-05-06 13:13 | -41.28615 | 156.99527 | 37100 ft | 456 kts | 104° |
| 2026-05-06 13:13 | -41.30380 | 157.07629 | 37103 ft | 456 kts | 104° |
| 2026-05-06 13:14 | -41.32133 | 157.15730 | 37105 ft | 456 kts | 104° |
| 2026-05-06 13:14 | -41.33870 | 157.23790 | 37105 ft | 456 kts | 104° |
| 2026-05-06 13:15 | -41.35617 | 157.31909 | 37107 ft | 456 kts | 104° |
| 2026-05-06 13:15 | -41.37072 | 157.38722 | 37109 ft | 456 kts | 104° |
| 2026-05-06 13:16 | -41.39085 | 157.48169 | 37111 ft | 456 kts | 104° |
| 2026-05-06 13:16 | -41.40538 | 157.54984 | 37108 ft | 456 kts | 104° |
| 2026-05-06 13:17 | -41.42253 | 157.63059 | 37113 ft | 456 kts | 104° |
| 2026-05-06 13:17 | -41.43965 | 157.71205 | 37113 ft | 456 kts | 104° |
| 2026-05-06 13:18 | -41.45673 | 157.79351 | 37114 ft | 456 kts | 104° |
| 2026-05-06 13:18 | -41.47375 | 157.87494 | 37108 ft | 456 kts | 104° |
| 2026-05-06 13:19 | -41.49077 | 157.95646 | 37108 ft | 456 kts | 103° |
| 2026-05-06 13:19 | -41.50769 | 158.03798 | 37110 ft | 456 kts | 103° |
| 2026-05-06 13:20 | -41.52456 | 158.11954 | 37110 ft | 456 kts | 103° |
| 2026-05-06 13:20 | -41.54142 | 158.20109 | 37106 ft | 456 kts | 103° |
| 2026-05-06 13:21 | -41.55817 | 158.28267 | 37098 ft | 456 kts | 103° |
| 2026-05-06 13:21 | -41.57481 | 158.36427 | 37099 ft | 456 kts | 103° |
| 2026-05-06 13:22 | -41.59136 | 158.44596 | 37102 ft | 456 kts | 103° |
| 2026-05-06 13:22 | -41.60791 | 158.52769 | 37104 ft | 456 kts | 103° |
| 2026-05-06 13:23 | -41.62429 | 158.60900 | 37103 ft | 456 kts | 103° |
| 2026-05-06 13:23 | -41.64079 | 158.69097 | 37109 ft | 456 kts | 103° |
| 2026-05-06 13:24 | -41.65717 | 158.77285 | 37106 ft | 456 kts | 103° |
| 2026-05-06 13:24 | -41.67346 | 158.85477 | 37108 ft | 456 kts | 103° |
| 2026-05-06 13:25 | -41.68980 | 158.93682 | 37106 ft | 456 kts | 103° |
| 2026-05-06 13:25 | -41.70599 | 159.01891 | 37109 ft | 456 kts | 103° |
| 2026-05-06 13:26 | -41.72214 | 159.10105 | 37112 ft | 457 kts | 103° |
| 2026-05-06 13:26 | -41.73830 | 159.18324 | 37118 ft | 457 kts | 103° |
| 2026-05-06 13:27 | -41.75432 | 159.26490 | 37107 ft | 456 kts | 103° |
| 2026-05-06 13:27 | -41.77040 | 159.34719 | 37112 ft | 456 kts | 103° |
| 2026-05-06 13:28 | -41.78634 | 159.42949 | 37108 ft | 456 kts | 102° |
| 2026-05-06 13:28 | -41.80222 | 159.51178 | 37105 ft | 456 kts | 102° |
| 2026-05-06 13:29 | -41.81799 | 159.59439 | 37103 ft | 457 kts | 102° |
| 2026-05-06 13:29 | -41.83373 | 159.67685 | 37101 ft | 457 kts | 102° |
| 2026-05-06 13:30 | -41.84953 | 159.75944 | 37103 ft | 457 kts | 102° |
| 2026-05-06 13:30 | -41.86528 | 159.84196 | 37106 ft | 457 kts | 102° |
| 2026-05-06 13:31 | -41.88075 | 159.92403 | 37098 ft | 457 kts | 102° |
| 2026-05-06 13:31 | -41.89619 | 160.00675 | 37099 ft | 457 kts | 102° |
| 2026-05-06 13:32 | -41.91167 | 160.08953 | 37105 ft | 457 kts | 102° |
| 2026-05-06 13:32 | -41.92719 | 160.17230 | 37107 ft | 457 kts | 102° |
| 2026-05-06 13:33 | -41.94261 | 160.25524 | 37103 ft | 458 kts | 102° |
| 2026-05-06 13:33 | -41.95790 | 160.33830 | 37108 ft | 458 kts | 102° |
| 2026-05-06 13:34 | -41.97318 | 160.42132 | 37108 ft | 458 kts | 102° |
| 2026-05-06 13:34 | -41.98840 | 160.50439 | 37105 ft | 458 kts | 102° |
| 2026-05-06 13:35 | -42.00356 | 160.58753 | 37098 ft | 458 kts | 102° |
| 2026-05-06 13:35 | -42.01867 | 160.67067 | 37097 ft | 458 kts | 102° |
| 2026-05-06 13:36 | -42.03373 | 160.75386 | 37098 ft | 458 kts | 101° |
| 2026-05-06 13:36 | -42.04867 | 160.83672 | 37105 ft | 458 kts | 101° |
| 2026-05-06 13:37 | -42.06360 | 160.92011 | 37097 ft | 459 kts | 101° |
| 2026-05-06 13:37 | -42.07844 | 161.00365 | 37104 ft | 459 kts | 101° |
| 2026-05-06 13:38 | -42.09327 | 161.08712 | 37108 ft | 458 kts | 101° |
| 2026-05-06 13:38 | -42.10801 | 161.17068 | 37096 ft | 458 kts | 101° |
| 2026-05-06 13:39 | -42.12268 | 161.25430 | 37086 ft | 459 kts | 101° |
| 2026-05-06 13:39 | -42.13738 | 161.33813 | 37093 ft | 459 kts | 101° |
| 2026-05-06 13:40 | -42.15190 | 161.42136 | 37098 ft | 460 kts | 101° |
| 2026-05-06 13:40 | -42.16646 | 161.50526 | 37100 ft | 460 kts | 101° |
| 2026-05-06 13:41 | -42.18098 | 161.58922 | 37085 ft | 460 kts | 100° |
| 2026-05-06 13:41 | -42.19539 | 161.67327 | 37084 ft | 460 kts | 100° |
| 2026-05-06 13:42 | -42.20980 | 161.75749 | 37082 ft | 461 kts | 100° |
| 2026-05-06 13:42 | -42.22420 | 161.84178 | 37085 ft | 461 kts | 100° |
| 2026-05-06 13:43 | -42.23855 | 161.92609 | 37087 ft | 461 kts | 100° |
| 2026-05-06 13:43 | -42.25285 | 162.01053 | 37091 ft | 461 kts | 100° |
| 2026-05-06 13:44 | -42.26695 | 162.09503 | 37091 ft | 461 kts | 100° |
| 2026-05-06 13:44 | -42.28101 | 162.17949 | 37089 ft | 461 kts | 100° |
| 2026-05-06 13:45 | -42.29500 | 162.26397 | 37078 ft | 461 kts | 99° |
| 2026-05-06 13:45 | -42.31610 | 162.39092 | 37074 ft | 462 kts | 99° |
| 2026-05-06 13:46 | -42.33002 | 162.47518 | 37078 ft | 463 kts | 99° |
| 2026-05-06 13:46 | -42.34396 | 162.56063 | 37081 ft | 463 kts | 99° |
| 2026-05-06 13:47 | -42.35757 | 162.64514 | 37065 ft | 463 kts | 99° |
| 2026-05-06 13:47 | -42.37129 | 162.73027 | 37064 ft | 464 kts | 99° |
| 2026-05-06 13:48 | -42.38510 | 162.81555 | 37069 ft | 464 kts | 99° |
| 2026-05-06 13:48 | -42.39882 | 162.90098 | 37074 ft | 464 kts | 99° |
| 2026-05-06 13:49 | -42.41238 | 162.98638 | 37066 ft | 464 kts | 98° |
| 2026-05-06 13:49 | -42.42587 | 163.07189 | 37071 ft | 465 kts | 98° |
| 2026-05-06 13:50 | -42.43923 | 163.15682 | 37075 ft | 465 kts | 98° |
| 2026-05-06 13:50 | -42.45267 | 163.24258 | 37075 ft | 465 kts | 98° |
| 2026-05-06 13:51 | -42.46605 | 163.32827 | 37063 ft | 465 kts | 98° |
| 2026-05-06 13:51 | -42.47896 | 163.41107 | 37064 ft | 465 kts | 98° |
| 2026-05-06 13:52 | -42.49218 | 163.49697 | 37067 ft | 465 kts | 98° |
| 2026-05-06 13:52 | -42.50537 | 163.58284 | 37072 ft | 465 kts | 98° |
| 2026-05-06 13:53 | -42.51849 | 163.66873 | 37065 ft | 466 kts | 97° |
| 2026-05-06 13:53 | -42.53152 | 163.75485 | 37057 ft | 467 kts | 97° |
| 2026-05-06 13:54 | -42.54457 | 163.84120 | 37059 ft | 468 kts | 97° |
| 2026-05-06 13:54 | -42.55756 | 163.92771 | 37062 ft | 469 kts | 97° |
| 2026-05-06 13:55 | -42.57050 | 164.01440 | 37053 ft | 469 kts | 97° |
| 2026-05-06 13:55 | -42.58347 | 164.10121 | 37053 ft | 470 kts | 97° |
| 2026-05-06 13:56 | -42.59629 | 164.18758 | 37056 ft | 471 kts | 97° |
| 2026-05-06 13:56 | -42.60911 | 164.27494 | 37059 ft | 471 kts | 97° |
| 2026-05-06 13:57 | -42.62181 | 164.36238 | 37048 ft | 472 kts | 96° |
| 2026-05-06 13:57 | -42.63455 | 164.44992 | 37058 ft | 473 kts | 96° |
| 2026-05-06 13:58 | -42.64720 | 164.53771 | 37053 ft | 474 kts | 96° |
| 2026-05-06 13:58 | -42.65984 | 164.62568 | 37054 ft | 475 kts | 96° |
| 2026-05-06 13:59 | -42.67242 | 164.71383 | 37060 ft | 475 kts | 96° |
| 2026-05-06 13:59 | -42.68488 | 164.80162 | 37056 ft | 477 kts | 96° |
| 2026-05-06 14:00 | -42.69737 | 164.89023 | 37056 ft | 478 kts | 96° |
| 2026-05-06 14:00 | -42.70989 | 164.97912 | 37070 ft | 479 kts | 96° |
| 2026-05-06 14:01 | -42.72235 | 165.06819 | 37069 ft | 480 kts | 96° |
| 2026-05-06 14:01 | -42.73472 | 165.15743 | 37065 ft | 481 kts | 97° |
| 2026-05-06 14:02 | -42.74704 | 165.24688 | 37081 ft | 480 kts | 97° |
| 2026-05-06 14:02 | -42.75927 | 165.33621 | 37072 ft | 480 kts | 97° |
| 2026-05-06 14:03 | -42.77140 | 165.42552 | 37072 ft | 480 kts | 97° |
| 2026-05-06 14:03 | -42.78349 | 165.51490 | 37075 ft | 480 kts | 96° |
| 2026-05-06 14:04 | -42.79550 | 165.60441 | 37088 ft | 480 kts | 96° |
| 2026-05-06 14:04 | -42.80550 | 165.67881 | 37097 ft | 481 kts | 97° |
| 2026-05-06 14:05 | -42.81949 | 165.78301 | 37101 ft | 481 kts | 96° |
| 2026-05-06 14:05 | -42.83133 | 165.87268 | 37107 ft | 481 kts | 97° |
| 2026-05-06 14:06 | -42.84112 | 165.94784 | 37119 ft | 481 kts | 97° |
| 2026-05-06 14:06 | -42.85462 | 166.05212 | 37119 ft | 480 kts | 97° |
| 2026-05-06 14:07 | -42.86429 | 166.12667 | 37123 ft | 480 kts | 97° |
| 2026-05-06 14:07 | -42.87590 | 166.21636 | 37121 ft | 480 kts | 97° |
| 2026-05-06 14:08 | -42.88740 | 166.30605 | 37130 ft | 480 kts | 97° |
| 2026-05-06 14:08 | -42.89882 | 166.39562 | 37138 ft | 479 kts | 97° |
| 2026-05-06 14:09 | -42.91016 | 166.48524 | 37136 ft | 479 kts | 96° |
| 2026-05-06 14:09 | -42.92140 | 166.57476 | 37131 ft | 479 kts | 97° |
| 2026-05-06 14:10 | -42.93250 | 166.66382 | 37150 ft | 480 kts | 97° |
| 2026-05-06 14:10 | -42.94363 | 166.75355 | 37139 ft | 479 kts | 97° |
| 2026-05-06 14:11 | -42.95466 | 166.84324 | 37143 ft | 479 kts | 97° |
| 2026-05-06 14:11 | -42.96561 | 166.93300 | 37142 ft | 479 kts | 97° |
| 2026-05-06 14:12 | -42.97656 | 167.02273 | 37149 ft | 479 kts | 97° |
| 2026-05-06 14:12 | -42.98741 | 167.11241 | 37173 ft | 482 kts | 97° |
| 2026-05-06 14:13 | -42.99819 | 167.20261 | 37171 ft | 481 kts | 97° |
| 2026-05-06 14:13 | -43.00886 | 167.29240 | 37143 ft | 478 kts | 97° |
| 2026-05-06 14:14 | -43.01951 | 167.38203 | 37156 ft | 478 kts | 97° |
| 2026-05-06 14:14 | -43.02999 | 167.47202 | 37173 ft | 480 kts | 97° |
| 2026-05-06 14:15 | -43.04043 | 167.56203 | 37176 ft | 480 kts | 97° |
| 2026-05-06 14:15 | -43.05092 | 167.65206 | 37167 ft | 479 kts | 97° |
| 2026-05-06 14:16 | -43.06134 | 167.74213 | 37179 ft | 479 kts | 97° |
| 2026-05-06 14:16 | -43.07163 | 167.83217 | 37187 ft | 479 kts | 97° |
| 2026-05-06 14:17 | -43.08175 | 167.92244 | 37191 ft | 479 kts | 97° |
| 2026-05-06 14:17 | -43.09185 | 168.01260 | 37200 ft | 479 kts | 97° |
| 2026-05-06 14:18 | -43.10198 | 168.10270 | 37201 ft | 479 kts | 97° |
| 2026-05-06 14:18 | -43.11196 | 168.19207 | 37208 ft | 478 kts | 97° |
| 2026-05-06 14:19 | -43.12188 | 168.28217 | 37218 ft | 479 kts | 97° |
| 2026-05-06 14:19 | -43.13170 | 168.37240 | 37219 ft | 479 kts | 97° |
| 2026-05-06 14:20 | -43.14151 | 168.46259 | 37230 ft | 479 kts | 97° |
| 2026-05-06 14:20 | -43.15118 | 168.55273 | 37241 ft | 478 kts | 97° |
| 2026-05-06 14:21 | -43.16076 | 168.64288 | 37240 ft | 478 kts | 97° |
| 2026-05-06 14:21 | -43.17027 | 168.73300 | 37234 ft | 478 kts | 97° |
| 2026-05-06 14:22 | -43.17970 | 168.82311 | 37250 ft | 477 kts | 97° |
| 2026-05-06 14:22 | -43.18908 | 168.91313 | 37252 ft | 477 kts | 97° |
| 2026-05-06 14:23 | -43.19831 | 169.00244 | 37267 ft | 477 kts | 97° |
| 2026-05-06 14:23 | -43.20752 | 169.09239 | 37269 ft | 476 kts | 97° |
| 2026-05-06 14:24 | -43.21673 | 169.18230 | 37272 ft | 476 kts | 97° |
| 2026-05-06 14:24 | -43.22582 | 169.27230 | 37270 ft | 476 kts | 97° |
| 2026-05-06 14:25 | -43.23475 | 169.36228 | 37281 ft | 476 kts | 97° |
| 2026-05-06 14:25 | -43.24371 | 169.45225 | 37282 ft | 476 kts | 97° |
| 2026-05-06 14:26 | -43.25260 | 169.54216 | 37301 ft | 474 kts | 97° |
| 2026-05-06 14:26 | -43.26129 | 169.63177 | 37305 ft | 473 kts | 97° |
| 2026-05-06 14:27 | -43.26992 | 169.72124 | 37217 ft | 477 kts | 97° |
| 2026-05-06 14:27 | -43.27425 | 169.76638 | 36965 ft | 488 kts | 97° |
| 2026-05-06 14:27 | -43.27868 | 169.81276 | 36673 ft | 492 kts | 97° |
| 2026-05-06 14:28 | -43.28310 | 169.85933 | 36091 ft | 491 kts | 97° |
| 2026-05-06 14:28 | -43.28750 | 169.90576 | 35526 ft | 490 kts | 97° |
| 2026-05-06 14:28 | -43.29191 | 169.95214 | 34940 ft | 490 kts | 96° |
| 2026-05-06 14:28 | -43.29632 | 169.99855 | 34353 ft | 490 kts | 96° |
| 2026-05-06 14:29 | -43.30066 | 170.04481 | 33806 ft | 487 kts | 96° |
| 2026-05-06 14:29 | -43.30496 | 170.09075 | 33297 ft | 484 kts | 96° |
| 2026-05-06 14:29 | -43.30922 | 170.13648 | 32771 ft | 481 kts | 95° |
| 2026-05-06 14:29 | -43.31341 | 170.18182 | 32254 ft | 477 kts | 96° |
| 2026-05-06 14:30 | -43.31756 | 170.22694 | 31763 ft | 474 kts | 96° |
| 2026-05-06 14:30 | -43.32165 | 170.27160 | 31267 ft | 470 kts | 96° |
| 2026-05-06 14:30 | -43.32568 | 170.31603 | 30773 ft | 467 kts | 95° |
| 2026-05-06 14:30 | -43.32969 | 170.36009 | 30297 ft | 464 kts | 95° |
| 2026-05-06 14:31 | -43.33370 | 170.40395 | 29794 ft | 459 kts | 95° |
| 2026-05-06 14:31 | -43.33763 | 170.44723 | 29342 ft | 454 kts | 95° |
| 2026-05-06 14:31 | -43.34147 | 170.48992 | 28893 ft | 448 kts | 95° |
| 2026-05-06 14:31 | -43.34521 | 170.53215 | 28449 ft | 442 kts | 95° |
| 2026-05-06 14:32 | -43.34891 | 170.57386 | 28006 ft | 437 kts | 95° |
| 2026-05-06 14:32 | -43.35255 | 170.61501 | 27561 ft | 432 kts | 95° |
| 2026-05-06 14:32 | -43.35613 | 170.65586 | 27102 ft | 429 kts | 95° |
| 2026-05-06 14:32 | -43.35967 | 170.69630 | 26657 ft | 424 kts | 95° |
| 2026-05-06 14:33 | -43.36319 | 170.73634 | 26184 ft | 420 kts | 95° |
| 2026-05-06 14:33 | -43.36662 | 170.77555 | 25713 ft | 417 kts | 95° |
| 2026-05-06 14:33 | -43.37003 | 170.81499 | 25228 ft | 414 kts | 95° |
| 2026-05-06 14:33 | -43.37337 | 170.85415 | 24753 ft | 411 kts | 95° |
| 2026-05-06 14:34 | -43.37669 | 170.89302 | 24308 ft | 407 kts | 95° |
| 2026-05-06 14:34 | -43.38000 | 170.93161 | 23797 ft | 406 kts | 95° |
| 2026-05-06 14:34 | -43.38329 | 170.97021 | 23216 ft | 405 kts | 94° |
| 2026-05-06 14:34 | -43.38652 | 171.00828 | 22747 ft | 397 kts | 94° |
| 2026-05-06 14:35 | -43.38969 | 171.04540 | 22286 ft | 385 kts | 94° |
| 2026-05-06 14:35 | -43.39276 | 171.08128 | 21829 ft | 374 kts | 95° |
| 2026-05-06 14:35 | -43.39575 | 171.11669 | 21383 ft | 372 kts | 94° |
| 2026-05-06 14:35 | -43.39871 | 171.15198 | 20943 ft | 370 kts | 94° |
| 2026-05-06 14:36 | -43.40160 | 171.18708 | 20508 ft | 369 kts | 94° |
| 2026-05-06 14:36 | -43.40445 | 171.22201 | 20043 ft | 367 kts | 94° |
| 2026-05-06 14:36 | -43.40728 | 171.25690 | 19624 ft | 366 kts | 94° |
| 2026-05-06 14:36 | -43.41012 | 171.29169 | 19193 ft | 365 kts | 92° |
| 2026-05-06 14:37 | -43.41297 | 171.32629 | 18753 ft | 360 kts | 94° |
| 2026-05-06 14:37 | -43.41669 | 171.35977 | 18284 ft | 349 kts | 102° |
| 2026-05-06 14:37 | -43.42489 | 171.39073 | 17877 ft | 344 kts | 113° |
| 2026-05-06 14:37 | -43.43698 | 171.41866 | 17459 ft | 345 kts | 121° |
| 2026-05-06 14:38 | -43.44990 | 171.44636 | 17058 ft | 343 kts | 121° |
| 2026-05-06 14:38 | -43.46279 | 171.47406 | 16651 ft | 344 kts | 120° |
| 2026-05-06 14:38 | -43.47565 | 171.50182 | 16254 ft | 344 kts | 121° |
| 2026-05-06 14:38 | -43.48851 | 171.52963 | 15834 ft | 344 kts | 121° |
| 2026-05-06 14:39 | -43.50133 | 171.55738 | 15435 ft | 343 kts | 121° |
| 2026-05-06 14:39 | -43.51412 | 171.58511 | 15031 ft | 342 kts | 121° |
| 2026-05-06 14:39 | -43.52686 | 171.61277 | 14637 ft | 341 kts | 122° |
| 2026-05-06 14:39 | -43.53963 | 171.64037 | 14238 ft | 341 kts | 122° |
| 2026-05-06 14:40 | -43.55236 | 171.66788 | 13812 ft | 340 kts | 122° |
| 2026-05-06 14:40 | -43.56506 | 171.69537 | 13406 ft | 339 kts | 122° |
| 2026-05-06 14:40 | -43.57767 | 171.72276 | 13014 ft | 338 kts | 122° |
| 2026-05-06 14:40 | -43.59021 | 171.75005 | 12613 ft | 336 kts | 122° |
| 2026-05-06 14:41 | -43.60270 | 171.77718 | 12217 ft | 335 kts | 123° |
| 2026-05-06 14:41 | -43.61517 | 171.80429 | 11807 ft | 334 kts | 123° |
| 2026-05-06 14:41 | -43.62756 | 171.83134 | 11399 ft | 333 kts | 123° |
| 2026-05-06 14:41 | -43.63991 | 171.85840 | 10977 ft | 332 kts | 123° |
| 2026-05-06 14:42 | -43.65227 | 171.88545 | 10514 ft | 334 kts | 123° |
| 2026-05-06 14:42 | -43.66432 | 171.91179 | 10036 ft | 326 kts | 123° |
| 2026-05-06 14:42 | -43.67620 | 171.93773 | 9625 ft | 312 kts | 124° |
| 2026-05-06 14:42 | -43.68766 | 171.96276 | 9120 ft | 306 kts | 124° |
| 2026-05-06 14:43 | -43.69879 | 171.98783 | 8685 ft | 307 kts | 118° |
| 2026-05-06 14:43 | -43.70570 | 172.01554 | 8438 ft | 301 kts | 100° |
| 2026-05-06 14:43 | -43.70689 | 172.04377 | 8308 ft | 290 kts | 85° |
| 2026-05-06 14:43 | -43.70318 | 172.07054 | 8171 ft | 278 kts | 74° |
| 2026-05-06 14:44 | -43.69843 | 172.09558 | 7985 ft | 263 kts | 74° |
| 2026-05-06 14:44 | -43.69381 | 172.11980 | 7714 ft | 259 kts | 74° |
| 2026-05-06 14:44 | -43.68924 | 172.14380 | 7422 ft | 258 kts | 74° |
| 2026-05-06 14:45 | -43.68006 | 172.19157 | 6808 ft | 256 kts | 74° |
| 2026-05-06 14:45 | -43.67549 | 172.21535 | 6531 ft | 255 kts | 74° |
| 2026-05-06 14:45 | -43.67088 | 172.23935 | 5981 ft | 265 kts | 73° |
| 2026-05-06 14:45 | -43.66601 | 172.26454 | 5354 ft | 276 kts | 73° |
| 2026-05-06 14:46 | -43.66102 | 172.29019 | 4762 ft | 276 kts | 73° |
| 2026-05-06 14:46 | -43.65605 | 172.31579 | 4121 ft | 276 kts | 73° |
| 2026-05-06 14:46 | -43.64924 | 172.34014 | 3898 ft | 265 kts | 56° |
| 2026-05-06 14:46 | -43.63791 | 172.35928 | 3671 ft | 253 kts | 37° |
| 2026-05-06 14:47 | -43.62455 | 172.37486 | 3368 ft | 250 kts | 36° |
| 2026-05-06 14:47 | -43.61132 | 172.39018 | 3040 ft | 248 kts | 36° |
| 2026-05-06 14:47 | -43.59816 | 172.40547 | 2720 ft | 246 kts | 37° |
| 2026-05-06 14:47 | -43.58528 | 172.42044 | 2381 ft | 236 kts | 37° |
| 2026-05-06 14:48 | -43.57300 | 172.43473 | 2069 ft | 226 kts | 37° |
| 2026-05-06 14:48 | -43.56124 | 172.44838 | 1790 ft | 216 kts | 37° |
| 2026-05-06 14:48 | -43.55008 | 172.46135 | 1497 ft | 204 kts | 38° |
| 2026-05-06 14:48 | -43.53963 | 172.47347 | 1234 ft | 189 kts | 37° |
| 2026-05-06 14:49 | -43.52986 | 172.48479 | 994 ft | 177 kts | 37° |
| 2026-05-06 14:49 | -43.52075 | 172.49534 | 766 ft | 166 kts | 38° |
| 2026-05-06 14:49 | -43.51235 | 172.50499 | 558 ft | 150 kts | 40° |
| 2026-05-06 14:49 | -43.50464 | 172.51374 | 355 ft | 138 kts | 43° |
| 2026-05-06 14:50 | -43.49776 | 172.52192 | 189 ft | 127 kts | 41° |
| 2026-05-06 14:50 | -43.49160 | 172.52901 | 112 ft | 89 kts | 40° |
| 2026-05-06 14:50 | -43.48866 | 172.53240 | 110 ft | 42 kts | 39° |
| 2026-05-06 14:50 | -43.48809 | 172.53376 | 113 ft | 15 kts | 120° |
| 2026-05-06 14:51 | -43.48869 | 172.53482 | 111 ft | 0 kts | 130° |
| 2026-05-06 14:51 | -43.48870 | 172.53483 | 111 ft | 2 kts | 130° |
| 2026-05-06 14:52 | -43.48874 | 172.53567 | 113 ft | 13 kts | 45° |
| 2026-05-06 14:52 | -43.48811 | 172.53649 | 114 ft | 9 kts | 40° |
| 2026-05-06 14:52 | -43.48815 | 172.53688 | 115 ft | 3 kts | 110° |
| 2026-05-06 14:52 | -43.48850 | 172.53756 | 114 ft | 10 kts | 127° |
| 2026-05-06 14:53 | -43.48860 | 172.53773 | 113 ft | 0 kts | 128° |